ADDS METAR Data INFO
IDs: Format: Raw Decoded Include TAF

Data at: 0441 UTC 28 Jul 2017

KTYR 280353Z AUTO 17006KT 10SM CLR 29/23 A2994 RMK AO2 SLP129 T02890233
KTYR 280253Z AUTO 14005KT 10SM CLR 29/23 A2993 RMK AO2 SLP125 T02890233 53001
KTYR 280153Z 17006KT 10SM CLR 31/23 A2991 RMK AO2 SLP119 T03060228
KTYR 280053Z 18006KT 10SM CLR 33/22 A2992 RMK AO2 SLP123 T03280217
KTYR 272353Z 17007KT 10SM CLR 34/22 A2992 RMK AO2 SLP124 T03440217 10367 20339 56017
KTYR 272253Z 17009KT 10SM CLR 34/21 A2994 RMK AO2 SLP128 T03440211
KTYR 272153Z 22008KT 10SM CLR 36/19 A2995 RMK AO2 SLP133 T03560194
KTYR 272053Z 21011KT 10SM CLR 36/19 A2998 RMK AO2 SLP141 T03560189 58021
KTYR 271953Z 21008KT 10SM CLR 35/19 A3000 RMK AO2 SLP149 T03500194
KTYR 271853Z 19010G16KT 10SM CLR 35/19 A3003 RMK AO2 SLP158 T03500194
KTYR 271753Z 22010KT 10SM CLR 34/20 A3004 RMK AO2 SLP162 T03390200 10339 20256 58007
KTYR 271653Z VRB06KT 10SM CLR 33/21 A3006 RMK AO2 SLP170 T03330206
KTYR 271553Z 24010KT 10SM CLR 32/21 A3007 RMK AO2 SLP172 T03170206
KTYR 271453Z 24009KT 10SM CLR 30/22 A3006 RMK AO2 SLP170 T03000217 51007
KTYR 271353Z 25009KT 10SM CLR 28/23 A3006 RMK AO2 SLP170 T02830228
KTYR 271253Z 21007KT 10SM CLR 27/23 A3004 RMK AO2 SLP163 T02720233
KTYR 271153Z 23007KT 10SM CLR 26/23 A3004 RMK AO2 SLP163 T02560233 10278 20256 53004
KTYR 271053Z AUTO 22007KT 10SM CLR 26/23 A3002 RMK AO2 SLP157 T02610233
KTYR 270953Z AUTO 21005KT 10SM CLR 26/24 A3003 RMK AO2 SLP161 T02610239
KTYR 270853Z AUTO 19007KT 10SM CLR 27/23 A3003 RMK AO2 SLP158 T02670233 55001
KTYR 270753Z AUTO 19011KT 10SM CLR 27/23 A3002 RMK AO2 SLP155 T02720233
KTYR 270653Z AUTO 18007KT 10SM CLR 27/24 A3003 RMK AO2 SLP159 T02720239
KTYR 270553Z AUTO 18010KT 10SM CLR 28/23 A3003 RMK AO2 SLP159 T02780233 10344 20278 403670244 51000
KTYR 270453Z AUTO 18009KT 10SM CLR 28/23 A3003 RMK AO2 SLP160 T02830233
KTYR 270353Z AUTO 16006KT 10SM CLR 29/23 A3004 RMK AO2 SLP162 T02940228
KTYR 270253Z AUTO 16007KT 10SM CLR 30/23 A3003 RMK AO2 SLP159 T03000228 53007
KTYR 270153Z 16006KT 10SM CLR 31/22 A3002 RMK AO2 SLP157 T03060217
KTYR 270053Z 17006KT 10SM CLR 33/21 A3001 RMK AO2 SLP152 T03280211
KTYR 270029Z 17008KT 10SM FEW002 34/21 A3000 RMK AO2 T03390206
KTYR 262353Z 16007KT 10SM CLR 34/21 A3001 RMK AO2 SLP152 T03440206 10367 20333 56010
KTYR 262253Z 18010KT 10SM CLR 36/20 A3001 RMK AO2 SLP153 T03560200
KTYR 262153Z 15007KT 10SM FEW055 35/20 A3002 RMK AO2 SLP156 T03500200
KTYR 262053Z VRB05KT 10SM SCT055 36/21 A3003 RMK AO2 SLP161 T03560206 58021
KTYR 261953Z 20007KT 10SM CLR 35/21 A3006 RMK AO2 SLP170 T03500206
KTYR 261853Z 21010KT 10SM SCT043 BKN060 34/22 A3009 RMK AO2 SLP178 T03440217
KTYR 261753Z 19014KT 10SM SCT041 34/21 A3010 RMK AO2 SLP182 T03440211 10344 20250 58007
KTYR 261653Z 20011KT 10SM SCT035 33/21 A3011 RMK AO2 SLP188 T03280211